createdAt,value
2023-03-20T00:00:37.032Z,22.76
2023-03-20T00:04:37.132Z,22.78
2023-03-20T00:08:37.185Z,22.78
2023-03-20T00:12:38.028Z,22.79
2023-03-20T00:16:37.379Z,22.79
2023-03-20T00:20:37.623Z,22.79
2023-03-20T00:24:37.539Z,22.79
2023-03-20T00:28:37.562Z,22.79
2023-03-20T00:32:37.663Z,22.78
2023-03-20T00:36:37.710Z,22.79
2023-03-20T00:40:37.781Z,22.78
2023-03-20T00:44:39.994Z,22.79
2023-03-20T00:48:37.833Z,22.81
2023-03-20T00:52:37.830Z,22.80
2023-03-20T00:56:37.769Z,22.81
2023-03-20T01:00:37.780Z,22.83
2023-03-20T01:04:38.030Z,22.82
2023-03-20T01:08:37.626Z,22.83
2023-03-20T01:12:37.613Z,22.84
2023-03-20T01:16:37.693Z,22.85
2023-03-20T01:20:37.547Z,22.84
2023-03-20T01:24:40.305Z,22.84
2023-03-20T01:28:37.541Z,22.84
2023-03-20T01:32:37.444Z,22.84
2023-03-20T01:36:37.384Z,22.84
2023-03-20T01:40:37.459Z,22.84
2023-03-20T01:44:37.332Z,22.83
2023-03-20T01:48:37.287Z,22.84
2023-03-20T01:52:37.541Z,22.84
2023-03-20T01:56:37.247Z,22.84
2023-03-20T02:00:37.171Z,22.84
2023-03-20T02:04:37.204Z,22.83
2023-03-20T02:08:37.123Z,22.83
2023-03-20T02:12:37.145Z,22.83
2023-03-20T02:16:37.185Z,22.84
2023-03-20T02:20:37.027Z,22.85
2023-03-20T02:24:36.937Z,22.85
2023-03-20T02:28:36.909Z,22.86
2023-03-20T02:32:36.932Z,22.86
2023-03-20T02:36:36.866Z,22.86
2023-03-20T02:40:43.995Z,22.86
2023-03-20T02:44:36.804Z,22.86
2023-03-20T02:48:37.085Z,22.86
2023-03-20T02:52:36.714Z,22.85
2023-03-20T02:56:37.088Z,22.85
2023-03-20T03:00:36.623Z,22.86
2023-03-20T03:04:36.645Z,22.86
2023-03-20T03:08:36.534Z,22.86
2023-03-20T03:12:36.517Z,22.85
2023-03-20T03:16:36.468Z,22.87
2023-03-20T03:20:36.385Z,22.86
2023-03-20T03:24:41.175Z,22.85
2023-03-20T03:28:37.452Z,22.86
2023-03-20T03:32:36.407Z,22.85
2023-03-20T03:36:36.273Z,22.85
2023-03-20T03:40:36.215Z,22.86
2023-03-20T03:44:36.549Z,22.87
2023-03-20T03:48:36.233Z,22.87
2023-03-20T03:52:36.311Z,22.87
2023-03-20T03:56:36.290Z,22.87
2023-03-20T04:00:36.475Z,22.86
2023-03-20T04:04:36.504Z,22.86
2023-03-20T04:08:36.489Z,22.87
2023-03-20T04:12:36.557Z,22.87
2023-03-20T04:16:36.611Z,22.87
2023-03-20T04:20:36.656Z,22.86
2023-03-20T04:24:36.675Z,22.85
2023-03-20T04:28:36.749Z,22.86
2023-03-20T04:32:36.784Z,22.87
2023-03-20T04:36:36.895Z,22.87
2023-03-20T04:40:36.926Z,22.87
2023-03-20T04:44:36.947Z,22.87
2023-03-20T04:48:37.016Z,22.87
2023-03-20T04:52:37.043Z,22.86
2023-03-20T04:56:37.102Z,22.86
2023-03-20T05:00:37.188Z,22.85
2023-03-20T05:04:37.214Z,22.85
2023-03-20T05:08:37.294Z,22.86
2023-03-20T05:12:37.314Z,22.86
2023-03-20T05:16:38.146Z,22.85
2023-03-20T05:20:37.414Z,22.85
2023-03-20T05:24:38.098Z,22.85
2023-03-20T05:28:37.510Z,22.86
2023-03-20T05:32:37.609Z,22.86
2023-03-20T05:36:37.602Z,22.89
2023-03-20T05:40:37.631Z,22.91
2023-03-20T05:44:37.701Z,22.91
2023-03-20T05:48:37.740Z,22.93
2023-03-20T05:52:37.800Z,22.94
2023-03-20T05:56:38.261Z,22.94
2023-03-20T06:00:37.920Z,22.96
2023-03-20T06:04:37.930Z,22.96
2023-03-20T06:08:38.637Z,22.96
2023-03-20T06:12:37.973Z,22.97
2023-03-20T06:16:38.013Z,22.98
2023-03-20T06:20:38.014Z,22.98
2023-03-20T06:24:38.000Z,23.00
2023-03-20T06:28:38.161Z,23.01
2023-03-20T06:32:38.186Z,22.76
2023-03-20T06:40:57.448Z,22.81
2023-03-20T06:44:57.246Z,23.04
2023-03-20T06:48:57.234Z,23.16
2023-03-20T06:52:57.269Z,23.22
2023-03-20T06:56:58.094Z,23.33
2023-03-20T07:00:57.396Z,23.37
2023-03-20T07:04:57.293Z,23.38
2023-03-20T07:08:57.258Z,23.33
2023-03-20T07:12:57.217Z,23.36
2023-03-20T07:16:57.286Z,23.46
2023-03-20T07:20:57.122Z,23.55
2023-03-20T07:24:57.454Z,23.63
2023-03-20T07:28:57.262Z,23.69
2023-03-20T07:33:00.167Z,23.74
2023-03-20T07:36:57.068Z,23.79
2023-03-20T07:40:57.006Z,23.80
2023-03-20T07:44:57.097Z,23.69
2023-03-20T07:48:56.908Z,23.56
2023-03-20T07:52:56.920Z,23.46
2023-03-20T07:56:57.127Z,23.38
2023-03-20T08:00:56.928Z,23.30
2023-03-20T08:04:56.950Z,23.27
2023-03-20T08:08:56.771Z,23.23
2023-03-20T08:12:56.692Z,23.18
2023-03-20T08:17:12.874Z,23.14
2023-03-20T08:20:57.956Z,23.13
2023-03-20T08:24:56.716Z,23.09
2023-03-20T08:28:56.535Z,23.07
2023-03-20T08:32:56.593Z,23.05
2023-03-20T08:36:56.533Z,23.13
2023-03-20T08:40:56.413Z,23.40
2023-03-20T08:44:56.498Z,23.63
2023-03-20T08:48:56.630Z,23.82
2023-03-20T08:52:56.634Z,23.99
2023-03-20T08:56:56.991Z,24.09
2023-03-20T09:00:56.628Z,24.12
2023-03-20T09:04:56.755Z,24.11
2023-03-20T09:08:57.612Z,24.12
2023-03-20T09:12:56.831Z,24.14
2023-03-20T09:16:56.874Z,24.14
2023-03-20T09:20:57.242Z,24.20
2023-03-20T09:24:57.189Z,24.28
2023-03-20T09:28:57.312Z,24.31
2023-03-20T09:32:57.503Z,24.28
2023-03-20T09:36:57.413Z,24.21
2023-03-20T09:40:57.482Z,24.10
2023-03-20T09:44:57.498Z,24.09
2023-03-20T09:48:58.082Z,24.22
2023-03-20T09:52:57.545Z,24.37
2023-03-20T09:56:57.717Z,24.54
2023-03-20T10:00:58.033Z,24.67
2023-03-20T10:04:58.159Z,24.78
2023-03-20T10:08:58.326Z,24.86
2023-03-20T10:12:58.452Z,24.92
2023-03-20T10:16:58.481Z,24.95
2023-03-20T10:20:59.644Z,25.00
2023-03-20T10:24:58.695Z,25.07
2023-03-20T10:28:58.717Z,25.12
2023-03-20T10:32:58.803Z,25.14
2023-03-20T10:36:58.992Z,24.87
2023-03-20T10:40:58.977Z,24.67
2023-03-20T10:44:59.656Z,24.67
2023-03-20T10:48:59.415Z,24.73
2023-03-20T10:52:59.591Z,24.74
2023-03-20T10:57:00.580Z,24.72
2023-03-20T11:01:00.016Z,24.74
2023-03-20T11:05:00.102Z,24.73
2023-03-20T11:09:00.285Z,24.71
2023-03-20T11:13:01.082Z,24.70
2023-03-20T11:17:00.710Z,24.72
2023-03-20T11:21:00.761Z,24.70
2023-03-20T11:25:00.997Z,24.69
2023-03-20T11:29:01.103Z,24.69
2023-03-20T11:33:01.335Z,24.69
2023-03-20T11:37:16.459Z,24.70
2023-03-20T11:41:02.435Z,24.71
2023-03-20T11:45:01.421Z,24.72
2023-03-20T11:49:01.277Z,24.65
2023-03-20T11:53:01.421Z,24.53
2023-03-20T11:57:01.638Z,24.48
2023-03-20T12:01:01.384Z,24.35
2023-03-20T12:05:01.176Z,24.15
2023-03-20T12:09:01.162Z,24.09
2023-03-20T12:13:01.116Z,24.17
2023-03-20T12:17:01.234Z,24.27
2023-03-20T12:21:01.062Z,24.33
2023-03-20T12:25:01.004Z,24.35
2023-03-20T12:29:00.973Z,24.30
2023-03-20T12:33:01.248Z,24.25
2023-03-20T12:37:00.901Z,24.25
2023-03-20T12:41:00.889Z,24.23
2023-03-20T12:45:00.838Z,24.21
2023-03-20T12:49:00.931Z,24.24
2023-03-20T12:53:01.201Z,24.24
2023-03-20T12:57:00.816Z,24.30
2023-03-20T13:01:00.755Z,24.31
2023-03-20T13:05:00.737Z,24.34
2023-03-20T13:09:00.697Z,24.31
2023-03-20T13:13:00.768Z,24.36
2023-03-20T13:17:00.806Z,24.40
2023-03-20T13:21:01.013Z,24.41
2023-03-20T13:25:01.073Z,24.42
2023-03-20T13:29:01.036Z,24.57
2023-03-20T13:33:01.359Z,24.68
2023-03-20T13:37:12.371Z,24.73
2023-03-20T13:41:01.887Z,24.77
2023-03-20T13:45:00.816Z,24.81
2023-03-20T13:49:00.796Z,24.83
2023-03-20T13:53:00.908Z,24.86
2023-03-20T13:57:01.138Z,24.93
2023-03-20T14:01:01.178Z,24.95
2023-03-20T14:05:01.238Z,25.00
2023-03-20T14:09:01.365Z,25.00
2023-03-20T14:13:01.353Z,24.84
2023-03-20T14:17:01.725Z,24.74
2023-03-20T14:21:01.745Z,24.66
2023-03-20T14:25:08.676Z,24.60
2023-03-20T14:29:04.653Z,24.54
2023-03-20T14:33:01.875Z,24.49
2023-03-20T14:37:02.180Z,24.45
2023-03-20T14:41:01.874Z,24.42
2023-03-20T14:45:01.750Z,24.41
2023-03-20T14:49:01.666Z,24.40
2023-03-20T14:53:01.616Z,24.41
2023-03-20T14:57:01.588Z,24.43
2023-03-20T15:01:01.717Z,24.44
2023-03-20T15:05:01.505Z,24.37
2023-03-20T15:09:01.510Z,24.32
2023-03-20T15:13:01.492Z,24.29
2023-03-20T15:17:01.423Z,24.18
2023-03-20T15:21:01.382Z,24.12
2023-03-20T15:25:01.663Z,24.06
2023-03-20T15:29:01.343Z,24.03
2023-03-20T15:33:02.353Z,23.99
2023-03-20T15:37:01.320Z,23.95
2023-03-20T15:41:01.296Z,23.92
2023-03-20T15:45:01.410Z,23.90
2023-03-20T15:49:01.306Z,23.88
2023-03-20T15:53:01.474Z,23.87
2023-03-20T15:57:04.217Z,23.85
2023-03-20T16:01:01.364Z,23.83
2023-03-20T16:05:01.309Z,23.81
2023-03-20T16:09:01.367Z,23.77
2023-03-20T16:13:01.280Z,23.81
2023-03-20T16:17:01.145Z,23.83
2023-03-20T16:21:01.376Z,23.83
2023-03-20T16:25:01.160Z,23.82
2023-03-20T16:29:01.123Z,23.79
2023-03-20T16:33:01.156Z,23.76
2023-03-20T16:37:00.994Z,23.72
2023-03-20T16:41:00.972Z,23.70
2023-03-20T16:45:00.914Z,23.68
2023-03-20T16:49:00.968Z,23.64
2023-03-20T16:53:00.808Z,23.62
2023-03-20T16:57:00.852Z,23.59
2023-03-20T17:01:01.267Z,23.57
2023-03-20T17:05:00.756Z,23.54
2023-03-20T17:09:00.695Z,23.52
2023-03-20T17:13:00.813Z,23.50
2023-03-20T17:17:00.987Z,23.47
2023-03-20T17:21:01.193Z,23.46
2023-03-20T17:25:01.509Z,23.45
2023-03-20T17:29:01.721Z,23.43
2023-03-20T17:33:01.890Z,23.41
2023-03-20T17:37:02.117Z,23.39
2023-03-20T17:41:02.314Z,23.39
2023-03-20T17:45:02.554Z,23.37
2023-03-20T17:49:02.709Z,23.36
2023-03-20T17:53:02.921Z,23.34
2023-03-20T17:57:02.862Z,23.31
2023-03-20T18:01:02.950Z,23.30
2023-03-20T18:05:02.861Z,23.30
2023-03-20T18:09:02.723Z,23.27
2023-03-20T18:13:02.744Z,23.27
2023-03-20T18:17:02.712Z,23.26
2023-03-20T18:21:02.684Z,23.25
2023-03-20T18:25:02.569Z,23.24
2023-03-20T18:29:02.554Z,23.23
2023-03-20T18:33:02.807Z,23.21
2023-03-20T18:37:02.989Z,23.19
2023-03-20T18:41:03.164Z,23.18
2023-03-20T18:45:03.286Z,23.17
2023-03-20T18:49:03.585Z,23.15
2023-03-20T18:53:03.598Z,23.15
2023-03-20T18:57:03.811Z,23.14
2023-03-20T19:01:04.365Z,23.12
2023-03-20T19:05:03.923Z,23.11
2023-03-20T19:09:04.016Z,23.09
2023-03-20T19:13:04.118Z,23.09
2023-03-20T19:17:05.309Z,23.08
2023-03-20T19:21:04.307Z,23.07
2023-03-20T19:25:04.346Z,23.06
2023-03-20T19:29:04.384Z,23.05
2023-03-20T19:33:04.402Z,23.05
2023-03-20T19:37:04.421Z,23.04
2023-03-20T19:41:04.504Z,23.02
2023-03-20T19:45:04.413Z,23.02
2023-03-20T19:49:04.342Z,23.01
2023-03-20T19:53:04.322Z,23.03
2023-03-20T19:57:04.389Z,23.02
2023-03-20T20:01:13.245Z,23.00
2023-03-20T20:05:05.293Z,23.00
2023-03-20T20:09:04.310Z,22.99
2023-03-20T20:13:04.168Z,22.99
2023-03-20T20:17:04.190Z,23.00
2023-03-20T20:25:05.113Z,22.98
2023-03-20T20:29:04.147Z,22.96
2023-03-20T20:33:05.468Z,22.97
2023-03-20T20:41:04.940Z,22.95
2023-03-20T20:45:04.052Z,22.93
2023-03-20T20:49:18.128Z,22.94
2023-03-20T20:53:04.876Z,22.93
2023-03-20T20:57:03.871Z,22.93
2023-03-20T21:01:03.782Z,22.91
2023-03-20T21:05:03.759Z,22.92
2023-03-20T21:09:03.688Z,22.91
2023-03-20T21:13:03.661Z,22.91
2023-03-20T21:17:03.938Z,22.90
2023-03-20T21:21:03.901Z,22.91
2023-03-20T21:25:13.841Z,22.90
2023-03-20T21:29:04.510Z,22.90
2023-03-20T21:33:03.579Z,22.89
2023-03-20T21:38:01.161Z,22.90
2023-03-20T21:41:04.383Z,22.88
2023-03-20T21:49:54.502Z,22.87
2023-03-20T21:53:54.134Z,22.87
2023-03-20T21:57:44.484Z,22.88
2023-03-20T22:10:05.615Z,22.87
2023-03-20T22:14:12.600Z,22.87
2023-03-20T22:21:48.538Z,22.84
2023-03-20T22:29:48.164Z,22.84
2023-03-20T22:45:07.505Z,22.83
2023-03-20T22:49:02.796Z,22.82
2023-03-20T22:53:02.796Z,22.82
2023-03-20T22:57:02.671Z,22.79
2023-03-20T23:01:02.988Z,22.81
2023-03-20T23:05:03.905Z,22.81
2023-03-20T23:09:09.042Z,22.79
2023-03-20T23:13:03.639Z,22.80
2023-03-20T23:17:02.627Z,22.80
2023-03-20T23:21:02.608Z,22.79
2023-03-20T23:25:12.211Z,22.77
2023-03-20T23:29:03.546Z,22.76
2023-03-20T23:33:02.634Z,22.74
2023-03-20T23:37:03.406Z,22.74
2023-03-20T23:41:02.422Z,22.74
2023-03-20T23:45:17.189Z,22.75
2023-03-20T23:49:03.395Z,22.75
2023-03-20T23:57:03.328Z,22.77
